createdAt,value
2023-03-16T00:01:08.050Z,2.00
2023-03-16T00:03:37.267Z,2.15
2023-03-16T00:06:06.197Z,2.33
2023-03-16T00:08:36.145Z,2.05
2023-03-16T00:11:05.563Z,2.17
2023-03-16T00:13:33.538Z,2.50
2023-03-16T00:16:08.238Z,2.55
2023-03-16T00:18:39.422Z,2.00
2023-03-16T00:21:08.216Z,2.50
2023-03-16T00:23:37.555Z,2.40
2023-03-16T00:26:09.598Z,2.12
2023-03-16T00:28:38.248Z,1.65
2023-03-16T00:31:09.285Z,2.17
2023-03-16T00:33:37.155Z,2.17
2023-03-16T00:36:12.490Z,1.60
2023-03-16T00:38:45.720Z,2.20
2023-03-16T00:41:16.249Z,1.87
2023-03-16T00:43:46.726Z,2.20
2023-03-16T00:46:17.579Z,1.83
2023-03-16T00:48:48.442Z,2.08
2023-03-16T00:51:19.205Z,2.12
2023-03-16T00:53:48.131Z,1.95
2023-03-16T00:56:17.006Z,2.08
2023-03-16T00:58:47.129Z,1.70
2023-03-16T01:01:19.405Z,1.80
2023-03-16T01:03:50.059Z,1.95
2023-03-16T01:06:21.050Z,2.28
2023-03-16T01:08:50.205Z,1.87
2023-03-16T01:11:23.026Z,1.85
2023-03-16T01:13:55.339Z,2.10
2023-03-16T01:16:25.051Z,1.90
2023-03-16T01:18:56.520Z,2.15
2023-03-16T01:21:25.395Z,2.08
2023-03-16T01:23:54.686Z,1.65
2023-03-16T01:26:26.302Z,1.92
2023-03-16T01:28:55.627Z,1.62
2023-03-16T01:31:24.683Z,1.83
2023-03-16T01:33:53.480Z,1.67
2023-03-16T01:36:24.828Z,1.95
2023-03-16T01:38:54.427Z,2.90
2023-03-16T01:41:26.592Z,1.98
2023-03-16T01:43:59.108Z,2.10
2023-03-16T01:46:30.537Z,2.05
2023-03-16T01:49:21.515Z,2.22
2023-03-16T01:52:03.762Z,2.15
2023-03-16T01:54:40.147Z,1.70
2023-03-16T01:57:16.096Z,2.03
2023-03-16T01:59:54.030Z,1.52
2023-03-16T02:02:27.991Z,1.92
2023-03-16T02:05:17.662Z,1.70
2023-03-16T02:07:49.402Z,1.73
2023-03-16T02:10:20.442Z,1.25
2023-03-16T02:12:51.126Z,2.05
2023-03-16T02:15:20.033Z,1.77
2023-03-16T02:17:50.735Z,1.60
2023-03-16T02:20:44.594Z,1.65
2023-03-16T02:23:22.293Z,1.55
2023-03-16T02:26:01.739Z,1.87
2023-03-16T02:28:48.809Z,1.77
2023-03-16T02:31:19.864Z,1.92
2023-03-16T02:33:51.608Z,1.65
2023-03-16T02:36:20.946Z,2.42
2023-03-16T02:38:50.327Z,2.25
2023-03-16T02:41:22.036Z,1.80
2023-03-16T02:44:02.759Z,2.45
2023-03-16T02:46:36.545Z,1.73
2023-03-16T02:49:25.697Z,1.70
2023-03-16T02:51:54.052Z,1.60
2023-03-16T02:54:22.896Z,2.08
2023-03-16T02:56:51.526Z,1.87
2023-03-16T02:59:19.972Z,1.75
2023-03-16T03:01:48.997Z,1.98
2023-03-16T03:04:18.286Z,1.65
2023-03-16T03:06:48.992Z,1.90
2023-03-16T03:09:19.011Z,1.67
2023-03-16T03:11:49.485Z,1.70
2023-03-16T03:14:17.781Z,1.70
2023-03-16T03:16:47.392Z,1.70
2023-03-16T03:19:16.885Z,1.98
2023-03-16T03:21:45.418Z,1.75
2023-03-16T03:24:13.829Z,1.67
2023-03-16T03:26:45.627Z,1.65
2023-03-16T03:29:15.065Z,1.85
2023-03-16T03:31:44.117Z,1.83
2023-03-16T03:34:13.023Z,1.70
2023-03-16T03:36:42.365Z,2.40
2023-03-16T03:39:10.806Z,2.10
2023-03-16T03:41:40.072Z,1.77
2023-03-16T03:44:08.447Z,1.70
2023-03-16T03:46:37.212Z,2.10
2023-03-16T03:49:06.838Z,1.73
2023-03-16T03:51:35.953Z,1.50
2023-03-16T03:54:05.172Z,2.35
2023-03-16T03:56:36.534Z,2.10
2023-03-16T03:59:07.235Z,2.37
2023-03-16T04:01:38.195Z,2.42
2023-03-16T04:04:08.290Z,1.90
2023-03-16T04:06:36.001Z,1.90
2023-03-16T04:09:04.575Z,1.40
2023-03-16T04:11:33.873Z,1.50
2023-03-16T04:14:01.915Z,1.40
2023-03-16T04:16:29.768Z,1.83
2023-03-16T04:18:59.291Z,2.03
2023-03-16T04:21:26.990Z,1.83
2023-03-16T04:23:55.152Z,2.28
2023-03-16T04:26:25.705Z,2.00
2023-03-16T04:28:55.141Z,1.73
2023-03-16T04:31:23.413Z,1.23
2023-03-16T04:33:54.964Z,1.70
2023-03-16T04:36:24.733Z,1.60
2023-03-16T04:38:53.382Z,2.00
2023-03-16T04:41:22.785Z,2.10
2023-03-16T04:43:52.589Z,1.67
2023-03-16T04:46:21.763Z,1.83
2023-03-16T04:48:50.128Z,2.03
2023-03-16T04:51:18.710Z,1.92
2023-03-16T04:53:47.597Z,1.90
2023-03-16T04:56:20.242Z,1.90
2023-03-16T04:58:51.808Z,2.05
2023-03-16T05:01:20.294Z,1.92
2023-03-16T05:03:53.589Z,2.37
2023-03-16T05:06:22.502Z,1.80
2023-03-16T05:08:50.912Z,2.10
2023-03-16T05:11:19.073Z,2.10
2023-03-16T05:13:46.873Z,2.30
2023-03-16T05:16:16.129Z,3.20
2023-03-16T05:18:46.037Z,3.55
2023-03-16T05:21:13.737Z,3.15
2023-03-16T05:23:42.898Z,3.35
2023-03-16T05:26:11.172Z,2.60
2023-03-16T05:28:41.037Z,2.90
2023-03-16T05:31:10.610Z,2.90
2023-03-16T05:33:39.010Z,3.17
2023-03-16T05:36:08.037Z,3.33
2023-03-16T05:38:39.483Z,3.20
2023-03-16T05:41:08.040Z,3.10
2023-03-16T05:43:37.520Z,3.28
2023-03-16T05:46:07.370Z,3.05
2023-03-16T05:48:36.527Z,3.15
2023-03-16T05:51:06.102Z,3.25
2023-03-16T05:53:36.347Z,3.25
2023-03-16T05:56:04.268Z,3.17
2023-03-16T05:58:34.832Z,3.05
2023-03-16T06:01:08.528Z,2.87
2023-03-16T06:03:37.536Z,2.97
2023-03-16T06:06:08.717Z,3.75
2023-03-16T06:08:38.124Z,2.62
2023-03-16T06:11:07.134Z,2.55
2023-03-16T06:13:35.186Z,3.30
2023-03-16T06:16:07.285Z,2.42
2023-03-16T06:18:35.960Z,3.15
2023-03-16T06:21:04.737Z,2.78
2023-03-16T06:23:34.912Z,3.17
2023-03-16T06:26:04.707Z,2.80
2023-03-16T06:28:36.142Z,3.17
2023-03-16T06:31:05.385Z,2.75
2023-03-16T06:33:36.784Z,2.90
2023-03-16T06:36:06.725Z,2.65
2023-03-16T06:38:37.700Z,2.58
2023-03-16T06:41:06.108Z,3.30
2023-03-16T06:43:35.103Z,3.35
2023-03-16T06:46:04.191Z,3.17
2023-03-16T06:48:31.840Z,2.83
2023-03-16T06:50:59.207Z,3.17
2023-03-16T06:53:28.810Z,3.35
2023-03-16T06:55:57.995Z,3.67
2023-03-16T06:58:27.065Z,3.42
2023-03-16T07:00:54.960Z,3.67
2023-03-16T07:03:23.921Z,4.03
2023-03-16T07:05:53.627Z,3.08
2023-03-16T07:08:22.850Z,3.50
2023-03-16T07:10:52.028Z,3.87
2023-03-16T07:13:21.490Z,3.35
2023-03-16T07:15:53.453Z,3.03
2023-03-16T07:18:22.994Z,3.00
2023-03-16T07:20:53.827Z,2.90
2023-03-16T07:23:24.887Z,2.83
2023-03-16T07:25:54.207Z,5.32
2023-03-16T07:28:22.347Z,3.40
2023-03-16T07:31:03.401Z,2.70
2023-03-16T07:33:35.156Z,2.97
2023-03-16T07:36:04.719Z,2.80
2023-03-16T07:38:34.514Z,2.78
2023-03-16T07:41:04.532Z,2.92
2023-03-16T07:43:36.536Z,2.78
2023-03-16T07:46:05.653Z,3.30
2023-03-16T07:48:34.925Z,3.15
2023-03-16T07:51:03.353Z,2.72
2023-03-16T07:53:33.903Z,2.53
2023-03-16T07:56:04.613Z,2.97
2023-03-16T07:58:34.094Z,3.30
2023-03-16T08:01:02.041Z,2.83
2023-03-16T08:03:32.399Z,2.85
2023-03-16T08:06:00.842Z,2.60
2023-03-16T08:08:28.989Z,3.10
2023-03-16T08:10:58.790Z,2.85
2023-03-16T08:13:30.483Z,3.87
2023-03-16T08:16:02.729Z,2.97
2023-03-16T08:18:31.907Z,3.78
2023-03-16T08:21:01.065Z,3.35
2023-03-16T08:23:31.875Z,3.55
2023-03-16T08:26:02.096Z,3.05
2023-03-16T08:28:32.505Z,3.80
2023-03-16T08:31:01.642Z,3.10
2023-03-16T08:33:30.655Z,3.22
2023-03-16T08:36:00.761Z,3.05
2023-03-16T08:38:29.181Z,3.12
2023-03-16T08:40:58.795Z,3.35
2023-03-16T08:43:27.502Z,3.97
2023-03-16T08:45:56.933Z,4.18
2023-03-16T08:48:27.153Z,3.72
2023-03-16T08:50:56.616Z,4.07
2023-03-16T08:53:25.373Z,4.28
2023-03-16T08:55:53.445Z,3.33
2023-03-16T08:58:23.679Z,4.37
2023-03-16T09:00:52.946Z,3.45
2023-03-16T09:03:21.988Z,4.57
2023-03-16T09:05:50.258Z,3.80
2023-03-16T09:08:19.702Z,3.95
2023-03-16T09:10:48.659Z,4.00
2023-03-16T09:13:17.132Z,3.80
2023-03-16T09:15:44.666Z,4.20
2023-03-16T09:18:14.776Z,3.97
2023-03-16T09:20:43.169Z,4.18
2023-03-16T09:23:12.589Z,3.50
2023-03-16T09:25:42.157Z,4.00
2023-03-16T09:28:11.683Z,3.75
2023-03-16T09:30:39.627Z,3.87
2023-03-16T09:33:10.357Z,4.07
2023-03-16T09:35:38.477Z,3.67
2023-03-16T09:38:07.192Z,4.30
2023-03-16T09:40:37.243Z,4.68
2023-03-16T09:43:26.241Z,4.07
2023-03-16T09:46:25.700Z,4.30
2023-03-16T09:48:56.116Z,3.87
2023-03-16T09:51:39.024Z,4.12
2023-03-16T09:54:28.763Z,3.97
2023-03-16T09:56:58.037Z,3.87
2023-03-16T09:59:25.943Z,4.05
2023-03-16T10:02:32.833Z,4.10
2023-03-16T10:05:08.271Z,4.03
2023-03-16T10:07:51.366Z,5.05
2023-03-16T10:10:35.131Z,3.87
2023-03-16T10:13:05.047Z,4.15
2023-03-16T10:15:38.251Z,4.22
2023-03-16T10:18:13.326Z,4.00
2023-03-16T10:20:42.743Z,4.37
2023-03-16T10:23:27.314Z,5.00
2023-03-16T10:25:57.174Z,4.95
2023-03-16T10:28:32.582Z,5.12
2023-03-16T10:31:02.281Z,4.25
2023-03-16T10:33:38.742Z,5.10
2023-03-16T10:36:26.098Z,4.75
2023-03-16T10:38:59.238Z,4.20
2023-03-16T10:41:33.028Z,5.12
2023-03-16T10:44:10.467Z,5.60
2023-03-16T10:46:43.429Z,5.28
2023-03-16T10:49:31.127Z,4.90
2023-03-16T10:52:01.375Z,4.75
2023-03-16T10:54:34.549Z,4.75
2023-03-16T10:57:25.640Z,5.05
2023-03-16T10:59:56.868Z,5.03
2023-03-16T11:02:33.712Z,6.35
2023-03-16T11:05:28.257Z,7.03
2023-03-16T11:08:21.040Z,5.40
2023-03-16T11:10:58.971Z,5.07
2023-03-16T11:13:34.536Z,5.62
2023-03-16T11:16:18.785Z,6.80
2023-03-16T11:18:51.425Z,5.53
2023-03-16T11:21:39.206Z,5.45
2023-03-16T11:24:24.367Z,5.20
2023-03-16T11:26:57.681Z,5.68
2023-03-16T11:29:49.859Z,6.00
2023-03-16T11:32:25.869Z,5.07
2023-03-16T11:34:54.105Z,6.43
2023-03-16T11:37:50.416Z,5.70
2023-03-16T11:40:37.177Z,5.15
2023-03-16T11:43:34.337Z,6.00
2023-03-16T11:46:22.783Z,5.32
2023-03-16T11:48:55.624Z,5.75
2023-03-16T11:51:53.860Z,4.87
2023-03-16T11:54:53.683Z,6.75
2023-03-16T11:57:26.858Z,5.25
2023-03-16T12:00:25.654Z,5.90
2023-03-16T12:03:28.454Z,4.72
2023-03-16T12:06:13.508Z,5.30
2023-03-16T12:09:11.868Z,5.55
2023-03-16T12:11:51.240Z,6.12
2023-03-16T12:14:44.625Z,4.87
2023-03-16T12:17:20.974Z,5.50
2023-03-16T12:19:56.758Z,4.85
2023-03-16T12:22:34.258Z,5.40
2023-03-16T12:25:13.921Z,4.75
2023-03-16T12:27:44.548Z,4.40
2023-03-16T12:30:32.881Z,4.65
2023-03-16T12:33:08.609Z,4.80
2023-03-16T12:35:46.054Z,5.15
2023-03-16T12:38:48.672Z,4.90
2023-03-16T12:41:24.404Z,5.90
2023-03-16T12:44:01.576Z,5.60
2023-03-16T12:46:58.292Z,6.00
2023-03-16T12:49:28.830Z,6.00
2023-03-16T12:52:03.233Z,5.97
2023-03-16T12:54:32.626Z,6.60
2023-03-16T12:57:10.048Z,5.57
2023-03-16T12:59:43.216Z,6.85
2023-03-16T13:02:18.376Z,7.43
2023-03-16T13:04:51.616Z,7.15
2023-03-16T13:07:24.356Z,6.93
2023-03-16T13:10:02.825Z,6.28
2023-03-16T13:12:37.678Z,6.22
2023-03-16T13:15:23.084Z,6.43
2023-03-16T13:18:07.150Z,6.00
2023-03-16T13:20:51.658Z,7.45
2023-03-16T13:23:21.223Z,7.82
2023-03-16T13:26:16.528Z,8.13
2023-03-16T13:28:52.279Z,10.63
2023-03-16T13:31:43.162Z,7.90
2023-03-16T13:34:20.002Z,8.85
2023-03-16T13:36:51.023Z,8.63
2023-03-16T13:39:23.127Z,8.40
2023-03-16T13:42:21.643Z,9.65
2023-03-16T13:44:54.375Z,10.20
2023-03-16T13:47:22.194Z,9.80
2023-03-16T13:49:57.358Z,10.63
2023-03-16T13:52:31.023Z,10.43
2023-03-16T13:55:01.646Z,10.05
2023-03-16T13:57:38.237Z,8.82
2023-03-16T14:00:23.721Z,8.90
2023-03-16T14:02:56.355Z,9.95
2023-03-16T14:05:31.549Z,8.75
2023-03-16T14:08:02.832Z,9.18
2023-03-16T14:10:34.839Z,8.68
2023-03-16T14:13:33.646Z,8.70
2023-03-16T14:16:13.655Z,8.00
2023-03-16T14:18:53.096Z,8.05
2023-03-16T14:21:37.608Z,8.32
2023-03-16T14:24:08.199Z,9.02
2023-03-16T14:26:45.434Z,9.07
2023-03-16T14:29:20.216Z,9.77
2023-03-16T14:31:50.524Z,9.50
2023-03-16T14:34:40.161Z,8.00
2023-03-16T14:37:12.419Z,10.20
2023-03-16T14:39:41.231Z,10.27
2023-03-16T14:42:30.672Z,9.07
2023-03-16T14:45:01.702Z,7.70
2023-03-16T14:47:38.551Z,8.77
2023-03-16T14:50:11.191Z,8.95
2023-03-16T14:52:39.452Z,8.68
2023-03-16T14:55:17.251Z,9.73
2023-03-16T14:57:46.604Z,9.35
2023-03-16T15:00:17.883Z,9.10
2023-03-16T15:02:54.624Z,9.48
2023-03-16T15:05:31.851Z,9.82
2023-03-16T15:08:01.048Z,10.00
2023-03-16T15:10:34.053Z,9.73
2023-03-16T15:13:13.322Z,10.15
2023-03-16T15:15:43.505Z,10.73
2023-03-16T15:18:12.850Z,11.12
2023-03-16T15:20:45.186Z,11.57
2023-03-16T15:23:17.707Z,10.93
2023-03-16T15:28:21.017Z,13.13
2023-03-16T15:30:52.244Z,11.85
2023-03-16T15:33:21.742Z,12.60
2023-03-16T15:35:52.725Z,14.93
2023-03-16T15:38:33.066Z,14.85
2023-03-16T15:41:03.215Z,13.40
2023-03-16T15:43:32.094Z,11.77
2023-03-16T15:46:01.578Z,11.02
2023-03-16T15:48:32.173Z,11.00
2023-03-16T15:51:04.287Z,11.12
2023-03-16T15:53:36.753Z,10.77
2023-03-16T15:56:08.018Z,11.20
2023-03-16T15:58:38.909Z,11.57
2023-03-16T16:01:09.310Z,11.68
2023-03-16T16:03:39.133Z,11.55
2023-03-16T16:06:11.153Z,14.43
2023-03-16T16:08:39.219Z,13.10
2023-03-16T16:11:14.690Z,11.40
2023-03-16T16:13:45.333Z,11.75
2023-03-16T16:16:16.133Z,14.48
2023-03-16T16:18:44.878Z,13.45
2023-03-16T16:21:18.073Z,11.80
2023-03-16T16:23:47.614Z,14.10
2023-03-16T16:26:16.266Z,13.68
2023-03-16T16:28:43.476Z,12.55
2023-03-16T16:31:14.553Z,14.43
2023-03-16T16:33:43.172Z,15.48
2023-03-16T16:36:17.972Z,14.87
2023-03-16T16:38:48.019Z,18.75
2023-03-16T16:41:33.822Z,18.48
2023-03-16T16:44:09.181Z,16.00
2023-03-16T16:46:40.768Z,16.75
2023-03-16T16:49:18.098Z,18.52
2023-03-16T16:51:46.626Z,19.30
2023-03-16T16:54:18.546Z,18.25
2023-03-16T16:56:47.210Z,16.50
2023-03-16T16:59:19.711Z,17.15
2023-03-16T17:01:49.420Z,15.82
2023-03-16T17:04:23.999Z,15.63
2023-03-16T17:06:55.836Z,15.45
2023-03-16T17:09:26.493Z,18.17
2023-03-16T17:11:56.968Z,18.75
2023-03-16T17:14:28.070Z,19.42
2023-03-16T17:16:57.839Z,19.87
2023-03-16T17:19:29.119Z,19.90
2023-03-16T17:21:59.004Z,20.95
2023-03-16T17:24:27.599Z,21.70
2023-03-16T17:26:59.894Z,21.70
2023-03-16T17:29:31.656Z,23.17
2023-03-16T17:32:01.912Z,19.65
2023-03-16T17:34:32.517Z,20.00
2023-03-16T17:37:03.237Z,15.48
2023-03-16T17:39:35.561Z,13.18
2023-03-16T17:44:42.834Z,11.07
2023-03-16T17:47:19.766Z,12.55
2023-03-16T17:49:49.275Z,14.00
2023-03-16T17:52:23.812Z,13.77
2023-03-16T17:54:54.967Z,15.02
2023-03-16T17:57:28.576Z,17.73
2023-03-16T17:59:59.156Z,22.70
2023-03-16T18:02:54.421Z,25.30
2023-03-16T18:05:29.019Z,22.33
2023-03-16T18:08:07.606Z,16.70
2023-03-16T18:10:37.946Z,15.82
2023-03-16T18:13:10.096Z,12.77
2023-03-16T18:15:39.061Z,13.68
2023-03-16T18:18:09.714Z,11.12
2023-03-16T18:20:38.318Z,11.68
2023-03-16T18:23:15.585Z,12.80
2023-03-16T18:25:44.414Z,9.32
2023-03-16T18:28:14.655Z,9.15
2023-03-16T18:30:46.309Z,8.13
2023-03-16T18:33:22.249Z,8.05
2023-03-16T18:35:52.444Z,9.00
2023-03-16T18:38:40.877Z,10.52
2023-03-16T18:41:16.440Z,11.82
2023-03-16T18:43:49.090Z,9.85
2023-03-16T18:46:30.742Z,7.55
2023-03-16T18:49:03.022Z,5.85
2023-03-16T18:51:32.894Z,6.55
2023-03-16T18:54:02.144Z,6.50
2023-03-16T18:56:31.352Z,7.07
2023-03-16T18:59:01.164Z,6.35
2023-03-16T19:01:32.552Z,6.53
2023-03-16T19:04:03.320Z,7.90
2023-03-16T19:06:36.578Z,7.00
2023-03-16T19:09:14.540Z,6.55
2023-03-16T19:11:45.892Z,6.68
2023-03-16T19:14:20.232Z,8.10
2023-03-16T19:16:49.175Z,7.10
2023-03-16T19:19:21.981Z,7.97
2023-03-16T19:21:57.680Z,6.90
2023-03-16T19:24:31.044Z,7.12
2023-03-16T19:26:59.624Z,6.85
2023-03-16T19:29:33.562Z,5.97
2023-03-16T19:32:02.566Z,8.02
2023-03-16T19:34:32.051Z,6.32
2023-03-16T19:37:01.233Z,7.57
2023-03-16T19:39:30.685Z,7.03
2023-03-16T19:42:00.956Z,7.28
2023-03-16T19:44:30.092Z,7.62
2023-03-16T19:47:00.314Z,8.30
2023-03-16T19:49:29.454Z,6.82
2023-03-16T19:51:58.713Z,6.95
2023-03-16T19:54:29.073Z,7.18
2023-03-16T19:57:00.978Z,6.90
2023-03-16T19:59:33.617Z,6.90
2023-03-16T20:02:02.825Z,6.87
2023-03-16T20:04:32.558Z,6.22
2023-03-16T20:07:01.960Z,6.65
2023-03-16T20:09:30.917Z,8.27
2023-03-16T20:11:59.246Z,6.93
2023-03-16T20:14:33.598Z,6.00
2023-03-16T20:17:02.763Z,6.50
2023-03-16T20:19:32.186Z,6.40
2023-03-16T20:22:01.091Z,6.78
2023-03-16T20:24:29.346Z,5.68
2023-03-16T20:26:58.586Z,7.43
2023-03-16T20:29:32.810Z,6.15
2023-03-16T20:32:04.269Z,7.20
2023-03-16T20:34:34.550Z,7.12
2023-03-16T20:37:02.986Z,7.30
2023-03-16T20:39:32.187Z,7.45
2023-03-16T20:42:01.076Z,8.35
2023-03-16T20:44:31.313Z,8.27
2023-03-16T20:47:00.865Z,7.45
2023-03-16T20:49:32.845Z,8.10
2023-03-16T20:52:00.652Z,8.52
2023-03-16T20:54:30.242Z,8.73
2023-03-16T20:57:00.503Z,10.23
2023-03-16T20:59:30.764Z,8.98
2023-03-16T21:02:01.182Z,10.75
2023-03-16T21:04:28.876Z,9.10
2023-03-16T21:06:56.914Z,9.88
2023-03-16T21:09:25.130Z,9.20
2023-03-16T21:11:52.404Z,10.25
2023-03-16T21:14:23.365Z,9.88
2023-03-16T21:16:52.540Z,10.30
2023-03-16T21:19:23.431Z,11.30
2023-03-16T21:21:51.676Z,12.02
2023-03-16T21:24:18.920Z,9.63
2023-03-16T21:26:47.599Z,12.07
2023-03-16T21:29:22.071Z,10.15
2023-03-16T21:31:50.089Z,12.68
2023-03-16T21:34:24.316Z,10.48
2023-03-16T21:36:51.614Z,10.15
2023-03-16T21:39:22.698Z,10.57
2023-03-16T21:41:50.970Z,9.60
2023-03-16T21:44:18.597Z,9.32
2023-03-16T21:46:47.492Z,10.63
2023-03-16T21:49:15.922Z,9.50
2023-03-16T21:51:43.875Z,9.82
2023-03-16T21:54:15.520Z,10.48
2023-03-16T21:56:43.025Z,10.02
2023-03-16T21:59:12.273Z,10.57
2023-03-16T22:01:58.239Z,9.73
2023-03-16T22:04:28.447Z,10.57
2023-03-16T22:06:55.752Z,8.55
2023-03-16T22:09:24.980Z,10.88
2023-03-16T22:11:53.038Z,8.45
2023-03-16T22:14:20.402Z,8.95
2023-03-16T22:16:48.049Z,10.45
2023-03-16T22:19:17.957Z,10.25
2023-03-16T22:21:47.328Z,9.30
2023-03-16T22:24:18.278Z,9.57
2023-03-16T22:26:46.964Z,8.75
2023-03-16T22:29:23.831Z,10.82
2023-03-16T22:31:56.282Z,8.60
2023-03-16T22:34:43.385Z,10.52
2023-03-16T22:37:14.102Z,9.18
2023-03-16T22:39:41.448Z,9.02
2023-03-16T22:42:38.250Z,9.55
2023-03-16T22:45:26.816Z,7.37
2023-03-16T22:47:56.473Z,10.45
2023-03-16T22:50:27.636Z,9.57
2023-03-16T22:52:58.633Z,8.32
2023-03-16T22:55:32.225Z,9.23
2023-03-16T22:58:06.620Z,7.82
2023-03-16T23:00:34.613Z,9.93
2023-03-16T23:03:02.192Z,7.90
2023-03-16T23:05:30.097Z,7.60
2023-03-16T23:08:01.029Z,6.40
2023-03-16T23:10:29.699Z,6.70
2023-03-16T23:12:59.671Z,5.87
2023-03-16T23:15:30.015Z,6.45
2023-03-16T23:17:57.935Z,5.95
2023-03-16T23:20:29.210Z,6.28
2023-03-16T23:22:56.646Z,5.50
2023-03-16T23:25:26.915Z,6.75
2023-03-16T23:27:54.128Z,6.78
2023-03-16T23:30:24.971Z,6.00
2023-03-16T23:32:54.578Z,6.18
2023-03-16T23:35:27.976Z,5.12
2023-03-16T23:37:56.149Z,5.32
2023-03-16T23:40:25.160Z,4.82
2023-03-16T23:42:54.690Z,6.20
2023-03-16T23:45:42.223Z,7.15
2023-03-16T23:48:15.332Z,5.70
2023-03-16T23:50:44.253Z,5.15
2023-03-16T23:53:16.106Z,5.68
2023-03-16T23:55:45.795Z,5.90
2023-03-16T23:58:14.109Z,7.07
